createdAt,value
2024-04-18T04:29:21.787Z,3.30
2024-04-18T04:31:48.758Z,4.00
2024-04-18T04:34:15.757Z,4.60
2024-04-18T04:36:42.683Z,5.40
2024-04-18T04:39:10.105Z,6.20
2024-04-18T04:41:40.678Z,6.80
2024-04-18T04:44:07.571Z,7.40
2024-04-18T04:46:51.410Z,7.90
2024-04-18T04:49:22.487Z,8.40
2024-04-18T04:52:04.876Z,8.80
2024-04-18T04:54:43.360Z,9.10
2024-04-18T04:57:11.664Z,9.40
2024-04-18T04:59:38.737Z,9.70
2024-04-18T05:02:05.903Z,9.90
2024-04-18T05:04:49.280Z,10.20
2024-04-18T05:07:32.366Z,10.60
2024-04-18T05:10:20.246Z,10.70
2024-04-18T05:12:47.662Z,10.80
2024-04-18T05:15:34.757Z,11.20
2024-04-18T05:18:02.024Z,11.30
2024-04-18T05:20:29.168Z,11.10
2024-04-18T05:22:56.435Z,10.60
2024-04-18T05:25:24.117Z,10.50
2024-04-18T05:28:05.739Z,10.60
2024-04-18T05:30:54.082Z,10.40
2024-04-18T05:33:21.282Z,10.40
2024-04-18T05:35:48.286Z,10.20
2024-04-18T05:38:15.259Z,10.30
2024-04-18T05:40:42.168Z,10.20
2024-04-18T05:43:09.127Z,10.30
2024-04-18T05:45:49.375Z,10.60
2024-04-18T05:48:16.732Z,10.90
2024-04-18T05:50:43.662Z,11.10
2024-04-18T05:53:22.899Z,11.60
2024-04-18T05:55:53.316Z,11.90
2024-04-18T05:58:20.246Z,12.00
2024-04-18T06:00:57.565Z,11.90
2024-04-18T06:03:25.648Z,12.00
2024-04-18T06:05:54.686Z,12.20
2024-04-18T06:08:21.814Z,12.60
2024-04-18T06:10:48.693Z,12.90
2024-04-18T06:13:19.785Z,12.70
2024-04-18T06:15:48.833Z,12.50
2024-04-18T06:18:16.420Z,12.30
2024-04-18T06:20:44.810Z,12.70
2024-04-18T06:23:12.221Z,13.10
2024-04-18T06:25:39.979Z,13.70
2024-04-18T06:28:10.368Z,13.20
2024-04-18T06:30:37.874Z,12.90
2024-04-18T06:33:11.254Z,13.20
2024-04-18T06:35:38.106Z,13.00
2024-04-18T06:38:06.158Z,13.00
2024-04-18T06:40:33.045Z,13.10
2024-04-18T06:43:00.044Z,13.80
2024-04-18T06:45:27.305Z,14.60
2024-04-18T06:47:54.365Z,14.80
2024-04-18T06:50:24.244Z,14.50
2024-04-18T06:52:53.282Z,14.60
2024-04-18T06:55:20.350Z,15.00
2024-04-18T06:57:47.278Z,15.30
2024-04-18T07:00:14.892Z,15.50
2024-04-18T07:02:41.797Z,14.60
2024-04-18T07:05:27.788Z,14.00
2024-04-18T07:08:15.363Z,14.30
2024-04-18T07:10:42.824Z,15.20
2024-04-18T07:13:28.823Z,15.30
2024-04-18T07:15:57.527Z,15.50
2024-04-18T07:18:43.462Z,15.80
2024-04-18T07:21:10.384Z,16.10
2024-04-18T07:23:37.671Z,17.10
2024-04-18T07:26:05.306Z,17.40
2024-04-18T07:28:32.379Z,17.20
2024-04-18T07:30:59.389Z,17.00
2024-04-18T07:33:26.978Z,16.40
2024-04-18T07:35:55.281Z,16.30
2024-04-18T07:38:25.934Z,16.50
2024-04-18T07:40:55.846Z,16.50
2024-04-18T07:43:22.850Z,16.60
2024-04-18T07:45:50.243Z,16.20
2024-04-18T07:48:17.309Z,15.90
2024-04-18T07:50:45.730Z,16.20
2024-04-18T07:53:12.681Z,17.30
2024-04-18T07:55:42.138Z,17.90
2024-04-18T07:58:09.486Z,18.30
2024-04-18T08:00:38.183Z,18.10
2024-04-18T08:03:07.022Z,17.70
2024-04-18T08:05:37.333Z,18.00
2024-04-18T08:08:08.657Z,18.40
2024-04-18T08:10:52.767Z,19.20
2024-04-18T08:13:29.898Z,20.00
2024-04-18T08:16:02.662Z,19.60
2024-04-18T08:18:29.914Z,18.50
2024-04-18T08:21:00.645Z,18.30
2024-04-18T08:23:27.940Z,18.10
2024-04-18T08:25:55.355Z,17.20
2024-04-18T08:28:22.688Z,16.80
2024-04-18T08:30:49.602Z,16.60
2024-04-18T08:33:16.528Z,16.50
2024-04-18T08:35:47.205Z,16.90
2024-04-18T08:38:14.460Z,17.10
2024-04-18T08:40:46.260Z,17.30
2024-04-18T08:43:13.729Z,17.10
2024-04-18T08:45:42.094Z,17.40
2024-04-18T08:48:11.383Z,18.10
2024-04-18T08:50:42.312Z,19.00
2024-04-18T08:53:11.333Z,19.50
2024-04-18T08:55:43.473Z,18.60
2024-04-18T08:58:12.874Z,18.80
2024-04-18T09:00:47.722Z,19.20
2024-04-18T09:03:14.836Z,18.00
2024-04-18T09:05:45.464Z,16.70
2024-04-18T09:08:14.299Z,16.10
2024-04-18T09:10:43.105Z,16.10
2024-04-18T09:13:10.854Z,16.60
2024-04-18T09:15:38.614Z,16.90
2024-04-18T09:18:07.953Z,17.30
2024-04-18T09:20:36.816Z,17.90
2024-04-18T09:23:05.108Z,18.10
2024-04-18T09:25:34.744Z,17.50
2024-04-18T09:28:04.047Z,16.70
2024-04-18T09:30:31.346Z,16.40
2024-04-18T09:33:04.022Z,16.90
2024-04-18T09:35:34.679Z,17.50
2024-04-18T09:38:08.505Z,17.80
2024-04-18T09:40:42.275Z,17.70
2024-04-18T09:43:27.308Z,17.60
2024-04-18T09:46:15.675Z,17.10
2024-04-18T09:48:43.672Z,16.70
2024-04-18T09:51:10.942Z,16.90
2024-04-18T09:53:40.684Z,17.10
2024-04-18T09:56:08.194Z,17.10
2024-04-18T09:58:37.060Z,17.10
2024-04-18T10:01:04.270Z,17.10
2024-04-18T10:03:31.566Z,17.20
2024-04-18T10:06:06.416Z,18.10
2024-04-18T10:08:50.701Z,18.90
2024-04-18T10:11:22.171Z,18.50
2024-04-18T10:13:50.874Z,19.40
2024-04-18T10:16:17.912Z,20.10
2024-04-18T10:18:51.490Z,19.50
2024-04-18T10:21:32.910Z,18.80
2024-04-18T10:24:06.316Z,18.40
2024-04-18T10:26:36.127Z,19.10
2024-04-18T10:29:03.104Z,19.90
2024-04-18T10:31:30.504Z,19.60
2024-04-18T10:33:58.551Z,18.90
2024-04-18T10:36:27.699Z,17.50
2024-04-18T10:38:54.856Z,16.30
2024-04-18T10:41:25.808Z,16.10
2024-04-18T10:43:52.793Z,16.70
2024-04-18T10:46:20.426Z,17.60
2024-04-18T10:48:52.918Z,18.10
2024-04-18T10:51:32.980Z,19.10
2024-04-18T10:54:31.667Z,19.50
2024-04-18T10:57:07.476Z,18.90
2024-04-18T10:59:43.516Z,17.30
2024-04-18T11:02:28.216Z,16.30
2024-04-18T11:05:09.968Z,15.30
2024-04-18T11:07:53.719Z,14.80
2024-04-18T11:10:32.998Z,14.50
2024-04-18T11:13:01.910Z,15.00
2024-04-18T11:15:35.486Z,15.70
2024-04-18T11:18:08.101Z,16.10
2024-04-18T11:20:50.489Z,16.10
2024-04-18T11:23:47.340Z,16.50
2024-04-18T11:26:30.244Z,15.60
2024-04-18T11:29:13.190Z,14.90
2024-04-18T11:31:48.556Z,15.50
2024-04-18T11:34:19.670Z,16.10
2024-04-18T11:37:14.959Z,16.60
2024-04-18T11:39:42.405Z,16.90
2024-04-18T11:42:09.703Z,17.30
2024-04-18T11:44:42.983Z,17.80
2024-04-18T11:47:13.793Z,17.20
2024-04-18T11:49:43.579Z,16.70
2024-04-18T11:52:10.601Z,16.40
2024-04-18T11:54:58.554Z,15.40
2024-04-18T11:57:37.814Z,14.90
2024-04-18T12:00:06.866Z,15.60
2024-04-18T12:02:52.456Z,16.50
2024-04-18T12:05:31.230Z,17.60
2024-04-18T12:08:00.753Z,18.40
2024-04-18T12:13:34.350Z,17.80
2024-04-18T12:16:04.202Z,16.30
2024-04-18T12:19:08.201Z,15.60
2024-04-18T12:21:35.378Z,15.00
2024-04-18T12:24:02.340Z,14.30
2024-04-18T12:26:36.438Z,14.30
2024-04-18T12:29:03.558Z,14.20
2024-04-18T12:31:31.579Z,13.90
2024-04-18T12:33:58.535Z,13.80
2024-04-18T12:36:26.699Z,14.00
2024-04-18T12:38:53.771Z,14.90
2024-04-18T12:41:20.697Z,15.50
2024-04-18T12:43:47.677Z,15.70
2024-04-18T12:46:33.753Z,15.40
2024-04-18T12:49:10.443Z,15.50
2024-04-18T12:51:37.681Z,15.60
2024-04-18T12:54:04.668Z,15.60
2024-04-18T12:56:50.055Z,15.70
2024-04-18T12:59:24.307Z,15.60
2024-04-18T13:01:51.199Z,15.50
2024-04-18T13:04:21.453Z,15.60
2024-04-18T13:06:48.989Z,15.50
2024-04-18T13:09:31.681Z,15.40
2024-04-18T13:12:03.104Z,15.40
2024-04-18T13:14:50.563Z,15.40
2024-04-18T13:17:17.576Z,15.30
2024-04-18T13:19:47.482Z,14.70
2024-04-18T13:22:17.286Z,13.90
2024-04-18T13:24:45.665Z,13.80
2024-04-18T13:27:32.523Z,13.90
2024-04-18T13:29:59.908Z,14.10
2024-04-18T13:32:42.438Z,14.20
2024-04-18T13:35:09.607Z,14.10
2024-04-18T13:37:36.678Z,14.50
2024-04-18T13:40:19.515Z,14.30
2024-04-18T13:42:57.005Z,14.00
2024-04-18T13:45:33.493Z,13.90
2024-04-18T13:48:01.726Z,13.80
2024-04-18T13:50:49.549Z,13.50
2024-04-18T13:53:17.193Z,13.30
2024-04-18T13:55:50.177Z,13.70
2024-04-18T13:58:17.882Z,14.00
2024-04-18T14:00:59.124Z,14.50
2024-04-18T14:03:29.793Z,15.20
2024-04-18T14:06:04.674Z,15.60
2024-04-18T14:08:38.940Z,15.80
2024-04-18T14:11:26.286Z,16.10
2024-04-18T14:14:08.040Z,16.10
2024-04-18T14:16:54.776Z,16.00
2024-04-18T14:19:34.068Z,15.50
2024-04-18T14:22:04.591Z,14.90
2024-04-18T14:24:31.510Z,14.70
2024-04-18T14:26:58.428Z,14.70
2024-04-18T14:29:25.359Z,15.00
2024-04-18T14:32:00.853Z,15.10
2024-04-18T14:34:47.330Z,15.40
2024-04-18T14:37:15.963Z,15.70
2024-04-18T14:39:42.909Z,15.40
2024-04-18T14:42:09.820Z,15.50
2024-04-18T14:44:36.688Z,15.70
2024-04-18T14:47:19.658Z,15.80
2024-04-18T14:50:02.669Z,16.00
2024-04-18T14:52:35.102Z,15.70
2024-04-18T14:55:25.993Z,15.10
2024-04-18T14:58:02.151Z,14.90
2024-04-18T15:00:50.587Z,15.00
2024-04-18T15:03:17.742Z,15.00
2024-04-18T15:05:53.923Z,15.00
2024-04-18T15:08:37.318Z,14.90
2024-04-18T15:11:22.340Z,14.70
2024-04-18T15:14:03.014Z,14.80
2024-04-18T15:16:29.909Z,14.90
2024-04-18T15:18:56.952Z,14.70
2024-04-18T15:21:23.968Z,14.60
2024-04-18T15:24:09.750Z,14.60
2024-04-18T15:26:57.315Z,14.50
2024-04-18T15:29:24.196Z,14.20
2024-04-18T15:32:09.823Z,14.00
2024-04-18T15:34:45.779Z,13.80
2024-04-18T15:37:34.044Z,13.60
2024-04-18T15:40:01.802Z,13.40
2024-04-18T15:42:28.736Z,13.20
2024-04-18T15:44:55.549Z,12.80
2024-04-18T15:47:33.632Z,12.20
2024-04-18T15:50:18.967Z,11.50
2024-04-18T15:52:46.327Z,11.30
2024-04-18T15:55:31.734Z,11.10
2024-04-18T15:58:17.989Z,11.00
2024-04-18T16:00:45.036Z,11.00
2024-04-18T16:03:32.768Z,11.20
2024-04-18T16:06:18.610Z,11.20
2024-04-18T16:09:05.630Z,11.30
2024-04-18T16:11:42.011Z,11.40
2024-04-18T16:14:28.030Z,11.30
2024-04-18T16:16:55.496Z,11.20
2024-04-18T16:25:19.620Z,11.20
2024-04-18T16:28:04.872Z,11.10
2024-04-18T16:30:32.152Z,11.10
2024-04-18T16:33:25.225Z,11.10
2024-04-18T16:35:56.464Z,11.00
2024-04-18T16:43:38.226Z,10.80
2024-04-18T16:46:56.111Z,10.70
2024-04-18T16:49:23.171Z,10.70
2024-04-18T16:52:17.808Z,10.80
2024-04-18T16:55:05.956Z,10.80
2024-04-18T16:57:39.134Z,10.80
2024-04-18T17:12:03.609Z,10.70
2024-04-18T17:23:59.192Z,10.50
2024-04-18T17:26:38.128Z,10.40
2024-04-18T17:33:13.376Z,10.40
2024-04-18T17:47:38.361Z,10.00
2024-04-18T17:51:08.280Z,9.90
2024-04-18T17:53:35.198Z,9.80
2024-04-18T17:56:02.407Z,9.80
2024-04-18T17:58:29.274Z,9.80
2024-04-18T18:00:56.193Z,9.80
2024-04-18T18:03:33.974Z,9.90
2024-04-18T18:06:01.249Z,9.90
2024-04-18T18:08:28.237Z,9.90
2024-04-18T18:11:15.065Z,9.90
2024-04-18T18:13:43.166Z,9.90
2024-04-18T18:16:11.798Z,9.90
2024-04-18T18:18:41.445Z,9.90
2024-04-18T18:21:08.477Z,9.70
2024-04-18T18:23:36.571Z,8.90
2024-04-18T18:26:03.569Z,7.80
2024-04-18T18:28:30.450Z,7.10
2024-04-18T18:31:01.484Z,6.70
2024-04-18T18:33:29.060Z,6.60
2024-04-18T18:35:56.003Z,6.50
2024-04-18T18:38:23.362Z,6.50
2024-04-18T18:40:50.810Z,6.50
2024-04-18T18:43:24.569Z,6.60
2024-04-18T18:45:52.284Z,6.60
2024-04-18T18:48:19.435Z,6.80
2024-04-18T18:51:06.425Z,6.90
2024-04-18T18:53:33.495Z,7.00
2024-04-18T18:56:00.757Z,7.00
2024-04-18T18:58:48.322Z,6.90
2024-04-18T19:01:15.362Z,6.70
2024-04-18T19:03:42.274Z,6.70
2024-04-18T19:06:13.605Z,6.70
2024-04-18T19:08:40.573Z,6.60
2024-04-18T19:11:07.506Z,6.50
2024-04-18T19:13:35.495Z,6.50
2024-04-18T19:16:02.641Z,6.40
2024-04-18T19:18:29.692Z,6.40
2024-04-18T19:20:56.997Z,6.40
2024-04-18T19:23:40.319Z,6.30
2024-04-18T19:26:08.841Z,6.30
2024-04-18T19:28:35.798Z,6.20
2024-04-18T19:31:05.305Z,6.20
2024-04-18T19:33:32.601Z,6.10
2024-04-18T19:36:00.234Z,6.00
2024-04-18T19:38:31.755Z,5.90
2024-04-18T19:40:59.715Z,5.80
2024-04-18T19:43:26.997Z,5.80
2024-04-18T19:46:01.779Z,5.70
2024-04-18T19:48:30.235Z,5.60
2024-04-18T19:50:57.257Z,5.60
2024-04-18T19:53:24.583Z,5.60
2024-04-18T19:55:51.729Z,5.70
2024-04-18T19:58:21.171Z,5.80
2024-04-18T20:00:48.100Z,5.80
2024-04-18T20:03:19.687Z,5.90
2024-04-18T20:05:46.720Z,5.90
2024-04-18T20:08:13.976Z,5.90
